createdAt,value
2023-01-18T00:01:12.404Z,9.90
2023-01-18T00:03:39.825Z,7.70
2023-01-18T00:06:07.864Z,10.27
2023-01-18T00:08:36.290Z,9.93
2023-01-18T00:11:04.092Z,7.93
2023-01-18T00:13:30.791Z,10.88
2023-01-18T00:16:05.887Z,8.60
2023-01-18T00:18:33.114Z,7.78
2023-01-18T00:21:04.187Z,9.65
2023-01-18T00:23:30.966Z,8.75
2023-01-18T00:26:06.512Z,7.63
2023-01-18T00:28:33.594Z,8.75
2023-01-18T00:31:00.358Z,7.93
2023-01-18T00:33:28.307Z,10.05
2023-01-18T00:35:59.798Z,7.75
2023-01-18T00:40:53.721Z,9.52
2023-01-18T00:43:39.274Z,10.77
2023-01-18T00:46:11.214Z,10.95
2023-01-18T00:48:39.810Z,10.70
2023-01-18T00:51:08.998Z,7.95
2023-01-18T00:53:36.603Z,8.73
2023-01-18T00:56:03.491Z,7.90
2023-01-18T00:58:30.581Z,11.80
2023-01-18T01:00:57.435Z,12.05
2023-01-18T01:03:24.142Z,8.95
2023-01-18T01:06:09.427Z,10.45
2023-01-18T01:08:36.134Z,7.28
2023-01-18T01:11:13.078Z,8.20
2023-01-18T01:13:58.284Z,9.50
2023-01-18T01:16:43.650Z,8.60
2023-01-18T01:19:28.924Z,8.90
2023-01-18T01:22:14.324Z,7.35
2023-01-18T01:24:59.641Z,9.75
2023-01-18T01:27:26.555Z,10.85
2023-01-18T01:29:53.299Z,7.97
2023-01-18T01:32:19.986Z,8.90
2023-01-18T01:34:46.758Z,7.90
2023-01-18T01:37:13.435Z,8.40
2023-01-18T01:39:40.111Z,8.52
2023-01-18T01:42:10.309Z,8.15
2023-01-18T01:44:42.100Z,5.82
2023-01-18T01:47:25.747Z,8.60
2023-01-18T01:49:56.472Z,7.35
2023-01-18T01:52:28.705Z,6.30
2023-01-18T01:55:12.099Z,9.30
2023-01-18T01:57:44.750Z,8.90
2023-01-18T02:00:14.499Z,5.68
2023-01-18T02:02:44.255Z,8.52
2023-01-18T02:05:13.728Z,7.75
2023-01-18T02:07:40.599Z,6.82
2023-01-18T02:10:08.328Z,7.35
2023-01-18T02:12:38.940Z,8.80
2023-01-18T02:15:06.677Z,6.05
2023-01-18T02:18:11.733Z,7.60
2023-01-18T02:20:44.401Z,8.02
2023-01-18T02:23:35.108Z,6.85
2023-01-18T02:26:26.768Z,8.77
2023-01-18T02:31:28.805Z,8.05
2023-01-18T02:34:13.674Z,7.07
2023-01-18T02:37:06.673Z,5.68
2023-01-18T02:39:51.983Z,8.02
2023-01-18T02:42:40.008Z,7.85
2023-01-18T02:45:37.370Z,7.75
2023-01-18T02:48:04.550Z,7.35
2023-01-18T02:50:31.470Z,8.30
2023-01-18T02:52:58.407Z,8.70
2023-01-18T02:55:27.968Z,9.15
2023-01-18T02:58:09.824Z,10.27
2023-01-18T03:00:39.424Z,8.57
2023-01-18T03:03:13.854Z,7.68
2023-01-18T03:05:43.362Z,7.88
2023-01-18T03:08:32.775Z,8.60
2023-01-18T03:11:03.123Z,8.15
2023-01-18T03:13:36.404Z,10.07
2023-01-18T03:16:12.076Z,8.32
2023-01-18T03:19:03.188Z,9.80
2023-01-18T03:21:32.522Z,8.93
2023-01-18T03:24:04.555Z,7.00
2023-01-18T03:26:35.676Z,8.07
2023-01-18T03:29:23.021Z,7.32
2023-01-18T03:32:10.418Z,8.50
2023-01-18T03:35:10.564Z,7.60
2023-01-18T03:37:40.759Z,9.10
2023-01-18T03:40:12.243Z,9.60
2023-01-18T03:45:27.864Z,7.13
2023-01-18T03:47:54.794Z,8.82
2023-01-18T03:50:41.975Z,8.85
2023-01-18T03:53:14.746Z,8.02
2023-01-18T03:55:47.178Z,10.65
2023-01-18T03:58:19.354Z,10.35
2023-01-18T04:00:46.426Z,10.48
2023-01-18T04:03:13.391Z,10.02
2023-01-18T04:05:40.242Z,10.88
2023-01-18T04:08:06.963Z,9.43
2023-01-18T04:10:33.777Z,8.07
2023-01-18T04:13:00.964Z,11.98
2023-01-18T04:15:28.002Z,9.35
2023-01-18T04:17:55.972Z,9.35
2023-01-18T04:20:23.860Z,11.27
2023-01-18T04:22:54.633Z,12.13
2023-01-18T04:25:21.903Z,12.05
2023-01-18T04:27:48.692Z,10.00
2023-01-18T04:30:15.781Z,10.00
2023-01-18T04:32:42.928Z,11.65
2023-01-18T04:35:10.242Z,9.52
2023-01-18T04:37:38.295Z,10.50
2023-01-18T04:40:06.719Z,10.25
2023-01-18T04:42:33.501Z,11.70
2023-01-18T04:45:00.695Z,10.32
2023-01-18T04:47:31.244Z,10.82
2023-01-18T04:49:58.041Z,10.43
2023-01-18T04:52:26.763Z,10.07
2023-01-18T04:54:53.566Z,9.93
2023-01-18T04:57:20.353Z,9.02
2023-01-18T04:59:47.010Z,10.02
2023-01-18T05:02:15.471Z,9.77
2023-01-18T05:04:43.722Z,12.35
2023-01-18T05:07:11.258Z,10.10
2023-01-18T05:09:38.039Z,12.02
2023-01-18T05:12:05.014Z,11.20
2023-01-18T05:14:31.682Z,11.50
2023-01-18T05:16:58.413Z,9.95
2023-01-18T05:19:30.677Z,10.85
2023-01-18T05:21:57.414Z,10.80
2023-01-18T05:24:24.360Z,12.13
2023-01-18T05:26:51.141Z,11.88
2023-01-18T05:29:18.075Z,10.63
2023-01-18T05:31:44.986Z,11.93
2023-01-18T05:34:11.968Z,13.82
2023-01-18T05:36:38.701Z,13.48
2023-01-18T05:39:05.736Z,16.10
2023-01-18T05:41:32.421Z,13.93
2023-01-18T05:43:59.120Z,14.10
2023-01-18T05:46:28.785Z,13.30
2023-01-18T05:48:58.940Z,14.32
2023-01-18T05:51:25.677Z,14.50
2023-01-18T05:53:52.338Z,14.65
2023-01-18T05:56:19.034Z,11.43
2023-01-18T05:58:46.349Z,13.02
2023-01-18T06:01:13.824Z,12.82
2023-01-18T06:03:41.010Z,11.65
2023-01-18T06:06:08.822Z,11.75
2023-01-18T06:08:35.768Z,11.25
2023-01-18T06:11:02.739Z,12.88
2023-01-18T06:13:33.585Z,11.90
2023-01-18T06:16:01.039Z,13.10
2023-01-18T06:18:30.011Z,13.15
2023-01-18T06:21:00.978Z,14.02
2023-01-18T06:25:56.226Z,13.80
2023-01-18T06:28:22.943Z,14.13
2023-01-18T06:30:52.894Z,15.60
2023-01-18T06:33:19.567Z,13.57
2023-01-18T06:35:46.274Z,15.50
2023-01-18T06:38:14.087Z,12.70
2023-01-18T06:40:41.060Z,15.57
2023-01-18T06:43:10.288Z,14.05
2023-01-18T06:45:37.063Z,13.98
2023-01-18T06:48:04.692Z,14.27
2023-01-18T06:50:31.471Z,14.23
2023-01-18T06:52:58.443Z,14.38
2023-01-18T06:55:25.458Z,17.65
2023-01-18T06:57:52.128Z,16.80
2023-01-18T07:00:19.298Z,15.68
2023-01-18T07:02:45.959Z,13.93
2023-01-18T07:05:12.715Z,14.73
2023-01-18T07:07:39.410Z,12.73
2023-01-18T07:10:06.551Z,14.13
2023-01-18T07:12:33.307Z,15.48
2023-01-18T07:15:04.860Z,13.38
2023-01-18T07:17:36.567Z,13.73
2023-01-18T07:20:03.460Z,14.27
2023-01-18T07:22:30.145Z,13.88
2023-01-18T07:24:57.135Z,13.98
2023-01-18T07:27:23.791Z,13.60
2023-01-18T07:29:50.461Z,13.73
2023-01-18T07:32:17.285Z,13.45
2023-01-18T07:34:43.969Z,15.00
2023-01-18T07:37:10.656Z,17.30
2023-01-18T07:39:37.343Z,13.30
2023-01-18T07:42:04.939Z,15.68
2023-01-18T07:44:31.731Z,17.48
2023-01-18T07:46:58.635Z,13.98
2023-01-18T07:49:25.335Z,15.05
2023-01-18T07:51:52.006Z,13.68
2023-01-18T07:54:19.172Z,12.98
2023-01-18T07:56:45.884Z,13.57
2023-01-18T07:59:12.578Z,13.68
2023-01-18T08:01:39.339Z,15.48
2023-01-18T08:04:06.102Z,15.15
2023-01-18T08:06:32.788Z,15.10
2023-01-18T08:08:59.735Z,17.00
2023-01-18T08:11:26.497Z,15.32
2023-01-18T08:13:53.235Z,14.13
2023-01-18T08:16:20.132Z,15.13
2023-01-18T08:18:49.725Z,14.85
2023-01-18T08:21:16.569Z,15.25
2023-01-18T08:23:43.313Z,14.40
2023-01-18T08:26:10.800Z,16.23
2023-01-18T08:28:37.571Z,14.63
2023-01-18T08:31:10.622Z,15.68
2023-01-18T08:33:48.831Z,15.30
2023-01-18T08:36:22.139Z,15.52
2023-01-18T08:38:50.784Z,16.05
2023-01-18T08:41:18.995Z,13.88
2023-01-18T08:43:50.717Z,15.93
2023-01-18T08:46:17.475Z,16.65
2023-01-18T08:48:44.187Z,14.98
2023-01-18T08:51:11.469Z,16.35
2023-01-18T08:53:38.330Z,14.93
2023-01-18T08:56:06.790Z,15.38
2023-01-18T08:58:33.898Z,15.43
2023-01-18T09:01:05.210Z,15.73
2023-01-18T09:03:31.985Z,14.73
2023-01-18T09:06:03.611Z,17.15
2023-01-18T09:08:31.640Z,13.60
2023-01-18T09:11:06.633Z,15.52
2023-01-18T09:13:34.701Z,15.20
2023-01-18T09:16:07.736Z,15.52
2023-01-18T09:18:35.238Z,14.23
2023-01-18T09:21:11.665Z,15.60
2023-01-18T09:23:40.123Z,15.90
2023-01-18T09:26:08.966Z,17.90
2023-01-18T09:28:36.292Z,16.00
2023-01-18T09:31:05.434Z,15.00
2023-01-18T09:33:37.413Z,16.02
2023-01-18T09:36:07.960Z,16.23
2023-01-18T09:38:36.127Z,15.98
2023-01-18T09:41:06.652Z,14.50
2023-01-18T09:43:43.034Z,16.93
2023-01-18T09:46:21.608Z,14.70
2023-01-18T09:49:00.670Z,16.50
2023-01-18T09:51:33.507Z,16.52
2023-01-18T09:54:18.520Z,16.95
2023-01-18T09:56:50.039Z,15.65
2023-01-18T09:59:25.473Z,17.45
2023-01-18T10:01:54.357Z,15.43
2023-01-18T10:04:36.287Z,14.77
2023-01-18T10:07:08.586Z,15.50
2023-01-18T10:09:46.184Z,16.13
2023-01-18T10:12:31.760Z,16.08
2023-01-18T10:15:31.887Z,13.20
2023-01-18T10:18:00.704Z,16.83
2023-01-18T10:20:34.004Z,14.43
2023-01-18T10:23:16.600Z,13.13
2023-01-18T10:25:55.400Z,15.13
2023-01-18T10:28:59.706Z,14.40
2023-01-18T10:31:48.548Z,15.88
2023-01-18T10:34:24.153Z,18.35
2023-01-18T10:37:04.472Z,20.70
2023-01-18T10:39:38.200Z,20.65
2023-01-18T10:42:17.535Z,18.85
2023-01-18T10:44:45.101Z,19.70
2023-01-18T10:47:12.153Z,21.38
2023-01-18T10:49:42.028Z,23.17
2023-01-18T10:52:24.540Z,20.13
2023-01-18T10:55:07.403Z,20.23
2023-01-18T10:57:43.420Z,21.92
2023-01-18T11:00:34.737Z,21.70
2023-01-18T11:03:05.208Z,19.80
2023-01-18T11:05:40.033Z,20.98
2023-01-18T11:08:32.914Z,22.75
2023-01-18T11:11:03.135Z,20.15
2023-01-18T11:13:39.024Z,24.90
2023-01-18T11:16:20.901Z,25.25
2023-01-18T11:18:59.854Z,33.35
2023-01-18T11:21:33.223Z,33.90
2023-01-18T11:24:07.762Z,21.65
2023-01-18T11:26:34.690Z,21.60
2023-01-18T11:29:12.758Z,23.98
2023-01-18T11:31:50.421Z,21.83
2023-01-18T11:34:28.752Z,21.40
2023-01-18T11:36:57.033Z,17.65
2023-01-18T11:39:28.470Z,24.70
2023-01-18T11:44:48.467Z,17.77
2023-01-18T11:47:23.408Z,22.38
2023-01-18T11:50:22.492Z,22.67
2023-01-18T11:52:51.125Z,22.67
2023-01-18T11:55:38.339Z,21.90
2023-01-18T11:58:16.961Z,22.58
2023-01-18T12:00:56.755Z,20.65
2023-01-18T12:03:45.349Z,19.30
2023-01-18T12:06:44.068Z,18.90
2023-01-18T12:09:54.133Z,19.70
2023-01-18T12:12:42.546Z,15.93
2023-01-18T12:15:41.954Z,14.80
2023-01-18T12:18:42.464Z,12.88
2023-01-18T12:21:24.014Z,16.70
2023-01-18T12:26:46.746Z,14.75
2023-01-18T12:29:20.389Z,12.40
2023-01-18T12:32:14.194Z,15.40
2023-01-18T12:34:42.132Z,15.48
2023-01-18T12:37:23.972Z,20.30
2023-01-18T12:39:54.118Z,20.33
2023-01-18T12:42:52.320Z,18.55
2023-01-18T12:45:41.665Z,15.85
2023-01-18T12:48:13.004Z,21.85
2023-01-18T12:50:42.508Z,19.25
2023-01-18T12:53:18.327Z,18.10
2023-01-18T12:55:49.512Z,17.15
2023-01-18T12:58:22.642Z,15.75
2023-01-18T13:00:54.662Z,16.20
2023-01-18T13:03:28.366Z,14.50
2023-01-18T13:05:59.322Z,13.77
2023-01-18T13:08:44.867Z,12.95
2023-01-18T13:11:32.604Z,15.18
2023-01-18T13:14:11.381Z,15.93
2023-01-18T13:16:42.249Z,16.95
2023-01-18T13:19:13.820Z,13.75
2023-01-18T13:21:52.222Z,13.50
2023-01-18T13:24:36.505Z,13.65
2023-01-18T13:27:11.730Z,13.30
2023-01-18T13:29:39.462Z,12.13
2023-01-18T13:32:33.210Z,11.48
2023-01-18T13:35:22.632Z,13.75
2023-01-18T13:37:56.429Z,10.80
2023-01-18T13:40:43.763Z,12.13
2023-01-18T13:43:30.521Z,10.40
2023-01-18T13:46:08.133Z,9.88
2023-01-18T13:48:57.668Z,8.98
2023-01-18T13:51:39.580Z,9.82
2023-01-18T13:54:29.404Z,9.77
2023-01-18T13:57:04.365Z,8.80
2023-01-18T13:59:38.220Z,8.65
2023-01-18T14:02:20.123Z,7.82
2023-01-18T14:05:08.985Z,7.47
2023-01-18T14:07:48.167Z,6.45
2023-01-18T14:10:37.097Z,6.88
2023-01-18T14:13:06.622Z,8.05
2023-01-18T14:15:42.150Z,7.45
2023-01-18T14:18:33.035Z,7.13
2023-01-18T14:21:06.235Z,6.55
2023-01-18T14:24:00.151Z,6.57
2023-01-18T14:26:31.873Z,8.45
2023-01-18T14:29:11.234Z,8.10
2023-01-18T14:31:42.706Z,7.72
2023-01-18T14:36:55.279Z,6.13
2023-01-18T14:39:22.757Z,7.43
2023-01-18T14:41:57.933Z,6.50
2023-01-18T14:44:28.840Z,7.22
2023-01-18T14:46:58.143Z,7.75
2023-01-18T14:49:31.568Z,8.55
2023-01-18T14:51:59.474Z,10.18
2023-01-18T14:54:26.285Z,9.18
2023-01-18T14:57:01.830Z,7.28
2023-01-18T14:59:31.158Z,9.60
2023-01-18T15:02:03.914Z,7.25
2023-01-18T15:04:39.355Z,8.55
2023-01-18T15:07:10.595Z,7.03
2023-01-18T15:09:39.756Z,6.38
2023-01-18T15:12:10.562Z,6.43
2023-01-18T15:14:43.871Z,6.78
2023-01-18T15:17:21.455Z,7.30
2023-01-18T15:20:06.955Z,5.78
2023-01-18T15:22:37.840Z,6.93
2023-01-18T15:25:07.479Z,5.43
2023-01-18T15:27:37.275Z,6.85
2023-01-18T15:30:12.864Z,7.47
2023-01-18T15:32:39.781Z,7.65
2023-01-18T15:35:09.685Z,6.80
2023-01-18T15:37:40.052Z,7.97
2023-01-18T15:40:12.592Z,7.85
2023-01-18T15:42:46.599Z,8.27
2023-01-18T15:45:20.728Z,8.18
2023-01-18T15:47:52.006Z,6.63
2023-01-18T15:50:20.745Z,7.95
2023-01-18T15:53:02.692Z,7.32
2023-01-18T15:55:50.161Z,11.30
2023-01-18T15:58:32.457Z,9.32
2023-01-18T16:01:02.740Z,10.85
2023-01-18T16:03:34.834Z,8.43
2023-01-18T16:06:11.909Z,11.10
2023-01-18T16:09:12.912Z,10.43
2023-01-18T16:11:49.909Z,10.15
2023-01-18T16:14:28.644Z,12.85
2023-01-18T16:16:58.071Z,14.70
2023-01-18T16:19:29.463Z,13.32
2023-01-18T16:22:26.980Z,11.02
2023-01-18T16:25:15.171Z,14.68
2023-01-18T16:27:51.417Z,11.40
2023-01-18T16:30:37.689Z,9.18
2023-01-18T16:33:15.900Z,10.68
2023-01-18T16:35:43.095Z,16.35
2023-01-18T16:38:12.232Z,15.75
2023-01-18T16:40:41.617Z,13.88
2023-01-18T16:43:18.274Z,11.30
2023-01-18T16:45:47.751Z,10.60
2023-01-18T16:48:17.172Z,13.05
2023-01-18T16:50:45.025Z,11.15
2023-01-18T16:53:12.420Z,11.50
2023-01-18T16:55:39.797Z,13.25
2023-01-18T16:58:06.768Z,11.95
2023-01-18T17:01:00.226Z,10.55
2023-01-18T17:03:28.901Z,11.68
2023-01-18T17:05:55.733Z,10.63
2023-01-18T17:08:22.814Z,11.57
2023-01-18T17:10:51.327Z,11.43
2023-01-18T17:13:18.298Z,11.85
2023-01-18T17:15:45.679Z,14.48
2023-01-18T17:18:25.793Z,12.38
2023-01-18T17:20:53.783Z,12.82
2023-01-18T17:23:21.327Z,11.52
2023-01-18T17:25:48.410Z,11.23
2023-01-18T17:28:17.911Z,13.40
2023-01-18T17:30:47.432Z,15.00
2023-01-18T17:33:20.497Z,12.70
2023-01-18T17:35:49.030Z,16.10
2023-01-18T17:38:23.309Z,13.55
2023-01-18T17:40:51.327Z,13.00
2023-01-18T17:43:28.439Z,16.48
2023-01-18T17:46:01.896Z,10.93
2023-01-18T17:48:29.060Z,12.40
2023-01-18T17:50:55.941Z,11.88
2023-01-18T17:53:22.745Z,10.55
2023-01-18T17:55:50.051Z,14.27
2023-01-18T17:58:16.810Z,10.95
2023-01-18T18:00:43.478Z,9.85
2023-01-18T18:03:10.404Z,11.95
2023-01-18T18:05:37.208Z,11.25
2023-01-18T18:08:04.139Z,11.68
2023-01-18T18:10:31.183Z,9.98
2023-01-18T18:12:58.421Z,11.80
2023-01-18T18:15:25.437Z,11.38
2023-01-18T18:17:52.323Z,12.10
2023-01-18T18:20:20.791Z,11.45
2023-01-18T18:22:48.783Z,11.50
2023-01-18T18:25:15.526Z,12.68
2023-01-18T18:27:46.461Z,10.02
2023-01-18T18:30:14.320Z,12.77
2023-01-18T18:32:40.972Z,14.75
2023-01-18T18:35:23.043Z,10.85
2023-01-18T18:37:51.788Z,12.55
2023-01-18T18:40:19.361Z,12.80
2023-01-18T18:42:59.925Z,12.25
2023-01-18T18:45:28.528Z,9.45
2023-01-18T18:47:55.407Z,9.77
2023-01-18T18:50:22.185Z,9.35
2023-01-18T18:52:48.822Z,10.00
2023-01-18T18:55:16.039Z,9.82
2023-01-18T18:57:42.709Z,9.55
2023-01-18T19:00:10.130Z,12.50
2023-01-18T19:02:37.802Z,7.97
2023-01-18T19:05:05.925Z,11.48
2023-01-18T19:07:34.850Z,11.98
2023-01-18T19:10:01.592Z,8.00
2023-01-18T19:12:28.376Z,9.18
2023-01-18T19:14:55.133Z,10.63
2023-01-18T19:17:30.217Z,8.88
2023-01-18T19:19:57.793Z,13.70
2023-01-18T19:22:24.525Z,11.02
2023-01-18T19:24:51.166Z,9.85
2023-01-18T19:27:17.853Z,8.90
2023-01-18T19:29:44.579Z,8.73
2023-01-18T19:32:11.301Z,9.02
2023-01-18T19:34:38.655Z,8.68
2023-01-18T19:37:08.233Z,9.13
2023-01-18T19:39:35.124Z,9.27
2023-01-18T19:42:02.662Z,11.10
2023-01-18T19:44:29.920Z,10.93
2023-01-18T19:46:57.139Z,9.60
2023-01-18T19:49:27.858Z,9.68
2023-01-18T19:51:54.940Z,9.07
2023-01-18T19:54:22.289Z,9.77
2023-01-18T19:56:49.657Z,12.43
2023-01-18T19:59:16.657Z,8.95
2023-01-18T20:01:43.750Z,11.45
2023-01-18T20:04:12.922Z,10.35
2023-01-18T20:06:40.096Z,10.85
2023-01-18T20:09:18.423Z,10.75
2023-01-18T20:11:46.087Z,9.82
2023-01-18T20:14:13.171Z,8.20
2023-01-18T20:16:40.063Z,7.65
2023-01-18T20:19:06.853Z,8.55
2023-01-18T20:21:33.606Z,10.32
2023-01-18T20:24:01.041Z,13.35
2023-01-18T20:26:36.460Z,13.10
2023-01-18T20:29:08.345Z,13.38
2023-01-18T20:31:36.539Z,13.95
2023-01-18T20:34:04.239Z,12.60
2023-01-18T20:36:31.098Z,11.80
2023-01-18T20:38:57.770Z,11.10
2023-01-18T20:41:24.566Z,11.35
2023-01-18T20:43:51.316Z,11.40
2023-01-18T20:46:18.194Z,12.93
2023-01-18T20:48:44.896Z,10.80
2023-01-18T20:51:11.676Z,10.15
2023-01-18T20:53:38.338Z,11.68
2023-01-18T20:56:23.465Z,11.80
2023-01-18T20:58:54.808Z,12.38
2023-01-18T21:01:21.741Z,10.40
2023-01-18T21:03:55.469Z,10.73
2023-01-18T21:06:22.311Z,10.98
2023-01-18T21:08:52.097Z,9.32
2023-01-18T21:11:22.826Z,9.75
2023-01-18T21:13:51.269Z,9.10
2023-01-18T21:16:18.295Z,9.95
2023-01-18T21:18:45.462Z,9.68
2023-01-18T21:21:12.981Z,7.53
2023-01-18T21:23:40.083Z,9.68
2023-01-18T21:26:08.675Z,7.45
2023-01-18T21:28:35.972Z,7.60
2023-01-18T21:31:02.835Z,8.15
2023-01-18T21:33:29.613Z,8.50
2023-01-18T21:36:02.847Z,8.68
2023-01-18T21:38:30.016Z,8.52
2023-01-18T21:40:56.662Z,9.88
2023-01-18T21:43:42.120Z,9.00
2023-01-18T21:46:11.077Z,9.63
2023-01-18T21:48:37.959Z,10.27
2023-01-18T21:51:24.386Z,9.82
2023-01-18T21:54:09.715Z,10.30
2023-01-18T21:56:37.145Z,10.25
2023-01-18T21:59:03.971Z,10.40
2023-01-18T22:01:38.633Z,11.50
2023-01-18T22:04:26.504Z,10.63
2023-01-18T22:06:54.067Z,10.20
2023-01-18T22:09:21.226Z,10.50
2023-01-18T22:11:48.130Z,11.07
2023-01-18T22:14:15.045Z,10.32
2023-01-18T22:16:41.797Z,12.43
2023-01-18T22:19:11.021Z,10.90
2023-01-18T22:21:37.752Z,13.32
2023-01-18T22:24:05.064Z,10.82
2023-01-18T22:26:31.805Z,10.05
2023-01-18T22:29:01.537Z,8.98
2023-01-18T22:31:29.035Z,9.45
2023-01-18T22:33:56.627Z,7.60
2023-01-18T22:36:24.060Z,10.48
2023-01-18T22:38:50.968Z,12.55
2023-01-18T22:41:20.607Z,12.07
2023-01-18T22:43:47.537Z,10.77
2023-01-18T22:46:16.394Z,11.90
2023-01-18T22:48:44.207Z,9.82
2023-01-18T22:51:19.897Z,12.23
2023-01-18T22:53:46.574Z,13.88
2023-01-18T22:56:19.458Z,9.93
2023-01-18T22:58:47.045Z,10.63
2023-01-18T23:01:29.273Z,9.48
2023-01-18T23:03:58.154Z,10.40
2023-01-18T23:06:24.991Z,7.68
2023-01-18T23:08:52.124Z,10.38
2023-01-18T23:11:27.164Z,10.30
2023-01-18T23:14:19.049Z,10.63
2023-01-18T23:17:06.329Z,9.32
2023-01-18T23:19:33.542Z,11.63
2023-01-18T23:22:00.307Z,8.90
2023-01-18T23:24:27.377Z,8.77
2023-01-18T23:26:54.095Z,13.90
2023-01-18T23:29:20.810Z,12.35
2023-01-18T23:31:47.522Z,13.00
2023-01-18T23:34:14.441Z,13.93
2023-01-18T23:36:41.235Z,11.00
2023-01-18T23:39:26.419Z,11.27
2023-01-18T23:42:11.761Z,17.50
2023-01-18T23:44:56.976Z,12.68
2023-01-18T23:47:42.253Z,15.45
2023-01-18T23:50:28.020Z,11.27
2023-01-18T23:53:13.246Z,13.23
2023-01-18T23:55:41.432Z,11.45
2023-01-18T23:58:08.199Z,8.52
